Time;durP1;ratioP1;P1;durP2;ratioP2;P2;SDS_P1;SDS_P2;PMS_P1;PMS_P2;Temp;Humidity;BMP_temperature;BMP_pressure;BME280_temperature;BME280_humidity;BME280_pressure;Samples;Min_cycle;Max_cycle;Signal;HPM_P1;HPM_P2
2021/12/09 00:01:37;;;;;;;3.55;2.50;;;;;;;;;;5036115;28;20040;-71
2021/12/09 00:04:05;;;;;;;2.28;2.17;;;;;;;;;;5031701;28;20048;-71
2021/12/09 00:06:32;;;;;;;6.57;3.97;;;;;;;;;;5040251;28;20063;-71
2021/12/09 00:09:03;;;;;;;0.55;0.55;;;;;;;;;;5029794;28;20425;-71
2021/12/09 00:11:29;;;;;;;;;;;;;;;;;;5029455;28;20431;-71
2021/12/09 00:13:55;;;;;;;3.95;2.28;;;;;;;;;;5039803;28;19909;-71
2021/12/09 00:16:21;;;;;;;13.77;2.70;;;;;;;;;;5043811;28;20063;-71
2021/12/09 00:18:48;;;;;;;0.85;0.85;;;;;;;;;;5026392;28;20049;-72
2021/12/09 00:21:13;;;;;;;5.78;2.60;;;;;;;;;;5027419;28;20099;-72
2021/12/09 00:23:40;;;;;;;4.43;3.22;;;;;;;;;;5029018;28;20479;-72
2021/12/09 00:26:06;;;;;;;3.17;2.45;;;;;;;;;;5046924;28;20081;-72
2021/12/09 00:28:32;;;;;;;3.25;1.70;;;;;;;;;;5027724;28;20199;-72
2021/12/09 00:30:58;;;;;;;1.33;1.33;;;;;;;;;;5038154;28;20489;-72
2021/12/09 00:33:24;;;;;;;1.48;1.38;;;;;;;;;;5036426;28;20075;-72
2021/12/09 00:35:59;;;;;;;4.90;1.77;;;;;;;;;;5023425;28;20025;-72
2021/12/09 00:38:38;;;;;;;2.60;2.42;;;;;;;;;;5025475;28;20426;-72
2021/12/09 00:41:06;;;;;;;4.55;3.15;;;;;;;;;;5034742;28;20485;-72
2021/12/09 00:43:32;;;;;;;8.02;4.15;;;;;;;;;;5030932;28;20040;-72
2021/12/09 00:45:58;;;;;;;2.08;1.90;;;;;;;;;;5030235;28;20127;-72
2021/12/09 00:48:25;;;;;;;0.63;0.63;;;;;;;;;;5026820;28;20053;-72
2021/12/09 00:50:51;;;;;;;0.68;0.65;;;;;;;;;;5027523;28;20041;-72
2021/12/09 00:53:17;;;;;;;5.18;3.85;;;;;;;;;;5038566;28;20022;-72
2021/12/09 00:55:43;;;;;;;5.25;3.38;;;;;;;;;;5036134;28;20031;-72
2021/12/09 00:58:09;;;;;;;3.60;1.67;;;;;;;;;;5040249;28;20021;-72
2021/12/09 01:00:35;;;;;;;1.83;1.52;;;;;;;;;;5027127;28;20080;-72
2021/12/09 01:03:01;;;;;;;5.90;1.75;;;;;;;;;;5026787;28;20423;-72
2021/12/09 01:05:27;;;;;;;1.35;1.35;;;;;;;;;;5021013;28;20116;-72
2021/12/09 01:07:53;;;;;;;2.65;2.40;;;;;;;;;;5021961;28;20464;-72
2021/12/09 01:10:19;;;;;;;2.88;2.65;;;;;;;;;;5041787;28;20031;-72
2021/12/09 01:12:45;;;;;;;3.75;1.83;;;;;;;;;;5038362;28;20091;-72
2021/12/09 01:15:12;;;;;;;11.35;5.25;;;;;;;;;;5040399;28;20472;-71
2021/12/09 01:17:38;;;;;;;16.65;3.55;;;;;;;;;;5039445;28;20495;-71
2021/12/09 01:20:06;;;;;;;2.80;2.60;;;;;;;;;;5043133;28;20057;-72
2021/12/09 01:22:38;;;;;;;17.75;5.22;;;;;;;;;;5032083;28;20037;-72
2021/12/09 01:25:05;;;;;;;1.80;1.70;;;;;;;;;;5035185;28;20041;-72
2021/12/09 01:27:34;;;;;;;12.00;4.43;;;;;;;;;;5028197;28;20033;-72
2021/12/09 01:30:07;;;;;;;2.72;2.30;;;;;;;;;;5029916;28;20145;-72
2021/12/09 01:32:33;;;;;;;1.83;1.73;;;;;;;;;;5032573;28;20448;-72
2021/12/09 01:34:59;;;;;;;1.65;1.55;;;;;;;;;;5035293;28;20384;-72
2021/12/09 01:37:25;;;;;;;1.85;1.75;;;;;;;;;;5030686;28;20025;-71
2021/12/09 01:39:51;;;;;;;8.98;5.40;;;;;;;;;;5028055;28;20100;-72
2021/12/09 01:42:17;;;;;;;1.55;1.38;;;;;;;;;;5031137;28;20718;-72
2021/12/09 01:44:43;;;;;;;3.50;3.17;;;;;;;;;;5025586;28;20515;-72
2021/12/09 01:47:09;;;;;;;1.92;1.27;;;;;;;;;;5035283;28;20037;-72
2021/12/09 01:49:35;;;;;;;3.35;2.90;;;;;;;;;;5043438;28;20507;-72
2021/12/09 01:52:01;;;;;;;5.13;3.00;;;;;;;;;;5038416;28;20033;-72
2021/12/09 01:54:27;;;;;;;1.55;1.40;;;;;;;;;;5029712;28;20075;-72
2021/12/09 01:56:53;;;;;;;1.73;1.63;;;;;;;;;;5022410;28;20036;-72
2021/12/09 01:59:19;;;;;;;1.60;1.50;;;;;;;;;;5020603;28;20017;-72
2021/12/09 02:01:45;;;;;;;4.93;3.90;;;;;;;;;;5032861;28;20506;-72
2021/12/09 02:04:12;;;;;;;1.52;1.42;;;;;;;;;;5025747;28;20025;-72
2021/12/09 02:06:40;;;;;;;0.70;0.70;;;;;;;;;;5028334;28;20045;-72
2021/12/09 02:09:11;;;;;;;1.65;1.55;;;;;;;;;;5025564;28;20527;-72
2021/12/09 02:11:36;;;;;;;9.95;3.05;;;;;;;;;;5032399;28;20557;-72
2021/12/09 02:14:03;;;;;;;2.13;1.83;;;;;;;;;;5039124;28;20421;-72
2021/12/09 02:16:29;;;;;;;4.32;3.80;;;;;;;;;;5034233;28;20029;-72
2021/12/09 02:18:55;;;;;;;22.90;2.72;;;;;;;;;;5043710;28;20022;-72
2021/12/09 02:21:22;;;;;;;3.92;1.80;;;;;;;;;;5039915;28;20050;-72
2021/12/09 02:23:50;;;;;;;10.13;2.78;;;;;;;;;;5023190;28;20057;-72
2021/12/09 02:26:20;;;;;;;2.05;1.90;;;;;;;;;;5048429;28;20124;-72
2021/12/09 02:28:46;;;;;;;1.20;1.20;;;;;;;;;;5033637;28;20065;-72
2021/12/09 02:31:12;;;;;;;2.05;1.85;;;;;;;;;;5031490;28;20492;-72
2021/12/09 02:33:39;;;;;;;2.42;2.22;;;;;;;;;;5033824;28;20632;-72
2021/12/09 02:36:05;;;;;;;9.98;1.52;;;;;;;;;;5025976;28;20482;-72
2021/12/09 02:38:31;;;;;;;1.52;1.42;;;;;;;;;;5026207;28;20029;-70
2021/12/09 02:40:58;;;;;;;2.33;1.85;;;;;;;;;;5045800;28;20091;-71
2021/12/09 02:43:26;;;;;;;3.00;2.42;;;;;;;;;;5037331;28;20033;-71
2021/12/09 02:45:52;;;;;;;4.53;2.70;;;;;;;;;;5028332;28;20444;-70
2021/12/09 02:48:20;;;;;;;3.08;2.83;;;;;;;;;;5029017;28;20121;-71
2021/12/09 02:50:46;;;;;;;8.07;3.20;;;;;;;;;;5037832;28;20038;-71
2021/12/09 02:53:12;;;;;;;6.13;3.55;;;;;;;;;;5047520;28;20605;-70
2021/12/09 02:55:38;;;;;;;3.60;1.98;;;;;;;;;;5045481;28;20111;-70
2021/12/09 02:58:04;;;;;;;1.70;1.60;;;;;;;;;;5054341;28;20112;-70
2021/12/09 03:00:30;;;;;;;5.97;3.08;;;;;;;;;;5044696;28;20470;-70
2021/12/09 03:02:58;;;;;;;3.25;1.38;;;;;;;;;;5045166;28;20112;-71
2021/12/09 03:05:25;;;;;;;4.57;2.28;;;;;;;;;;5040357;28;20128;-70
2021/12/09 03:07:51;;;;;;;1.38;1.27;;;;;;;;;;5037689;28;20028;-70
2021/12/09 03:10:21;;;;;;;1.88;1.63;;;;;;;;;;5046852;28;20450;-70
2021/12/09 03:12:48;;;;;;;3.13;2.83;;;;;;;;;;5046622;28;20029;-71
2021/12/09 03:15:15;;;;;;;2.30;1.52;;;;;;;;;;5033362;28;20026;-70
2021/12/09 03:17:42;;;;;;;3.45;3.15;;;;;;;;;;5029647;28;20472;-70
2021/12/09 03:20:09;;;;;;;3.33;1.73;;;;;;;;;;5023314;28;20093;-71
2021/12/09 03:22:36;;;;;;;9.13;4.70;;;;;;;;;;5024538;28;20039;-71
2021/12/09 03:25:02;;;;;;;5.13;3.05;;;;;;;;;;5029827;28;20029;-70
2021/12/09 03:27:28;;;;;;;3.70;1.73;;;;;;;;;;5046954;28;20029;-70
2021/12/09 03:29:54;;;;;;;3.92;3.22;;;;;;;;;;5043620;28;20036;-71
2021/12/09 03:32:22;;;;;;;1.45;1.35;;;;;;;;;;5046878;28;20017;-70
2021/12/09 03:34:48;;;;;;;1.58;1.38;;;;;;;;;;5033972;28;20038;-70
2021/12/09 03:37:16;;;;;;;1.30;1.27;;;;;;;;;;5032373;28;20487;-70
2021/12/09 03:39:42;;;;;;;2.03;1.92;;;;;;;;;;5026322;28;20025;-70
2021/12/09 03:42:09;;;;;;;3.65;1.42;;;;;;;;;;5026533;28;20031;-70
2021/12/09 03:44:35;;;;;;;2.85;1.92;;;;;;;;;;5035622;28;20480;-70
2021/12/09 03:47:03;;;;;;;2.08;1.90;;;;;;;;;;5028882;28;20041;-71
2021/12/09 03:49:32;;;;;;;3.72;2.10;;;;;;;;;;5021328;28;20451;-70
2021/12/09 03:51:58;;;;;;;3.00;2.15;;;;;;;;;;5028845;28;20033;-70
2021/12/09 03:54:25;;;;;;;5.32;3.88;;;;;;;;;;5034962;28;20488;-71
2021/12/09 03:56:52;;;;;;;1.13;1.10;;;;;;;;;;5026294;28;20028;-70
2021/12/09 03:59:18;;;;;;;3.17;2.92;;;;;;;;;;5024912;28;20116;-70
2021/12/09 04:01:45;;;;;;;2.15;1.40;;;;;;;;;;5035556;28;21057;-70
2021/12/09 04:04:11;;;;;;;1.33;1.25;;;;;;;;;;5026881;28;20409;-71
2021/12/09 04:06:37;;;;;;;16.73;4.32;;;;;;;;;;5030038;28;20079;-71
2021/12/09 04:09:05;;;;;;;2.20;1.77;;;;;;;;;;5042978;28;20486;-70
2021/12/09 04:11:31;;;;;;;2.13;1.80;;;;;;;;;;5029093;28;20033;-70
2021/12/09 04:13:57;;;;;;;3.85;2.55;;;;;;;;;;5024675;28;20033;-71
2021/12/09 04:16:23;;;;;;;3.40;3.13;;;;;;;;;;5030254;28;20463;-70
2021/12/09 04:18:49;;;;;;;2.47;1.40;;;;;;;;;;5038946;28;20112;-71
2021/12/09 04:21:15;;;;;;;5.43;2.00;;;;;;;;;;5034406;28;20037;-71
2021/12/09 04:23:41;;;;;;;1.67;1.58;;;;;;;;;;4992301;28;986686;-71
2021/12/09 04:26:07;;;;;;;3.42;1.50;;;;;;;;;;5027467;28;20056;-71
2021/12/09 04:28:34;;;;;;;1.25;1.23;;;;;;;;;;5027448;28;20665;-71
2021/12/09 04:31:00;;;;;;;1.63;1.52;;;;;;;;;;5031450;28;20091;-71
2021/12/09 04:33:26;;;;;;;2.10;2.00;;;;;;;;;;5024861;28;20018;-71
2021/12/09 04:35:52;;;;;;;3.88;3.58;;;;;;;;;;5038107;28;20142;-71
2021/12/09 04:38:18;;;;;;;4.15;2.58;;;;;;;;;;5040301;28;20032;-71
2021/12/09 04:40:44;;;;;;;1.75;1.65;;;;;;;;;;5023684;28;20403;-71
2021/12/09 04:43:10;;;;;;;3.42;1.10;;;;;;;;;;5024903;28;20053;-72
2021/12/09 04:45:38;;;;;;;4.03;3.33;;;;;;;;;;5028667;28;20094;-71
2021/12/09 04:48:04;;;;;;;0.82;0.82;;;;;;;;;;5036747;28;20468;-71
2021/12/09 04:50:31;;;;;;;0.98;0.98;;;;;;;;;;5035867;28;20024;-71
2021/12/09 04:52:57;;;;;;;3.35;3.05;;;;;;;;;;5024364;28;20040;-71
2021/12/09 04:55:23;;;;;;;3.65;2.28;;;;;;;;;;5036159;28;20034;-71
2021/12/09 04:57:49;;;;;;;9.73;2.65;;;;;;;;;;5031397;28;20024;-71
2021/12/09 05:00:17;;;;;;;3.78;3.40;;;;;;;;;;5035643;28;20029;-71
2021/12/09 05:05:31;;;;;;;8.30;4.38;;;;;;;;;;5027038;28;20083;-71
2021/12/09 05:07:57;;;;;;;1.42;1.20;;;;;;;;;;5036111;28;20427;-72
2021/12/09 05:10:23;;;;;;;2.65;2.45;;;;;;;;;;5037151;28;20067;-71
2021/12/09 05:12:49;;;;;;;2.85;1.73;;;;;;;;;;5023700;28;20124;-71
2021/12/09 05:15:14;;;;;;;2.92;2.45;;;;;;;;;;5022604;28;20563;-71
2021/12/09 05:17:40;;;;;;;2.55;2.38;;;;;;;;;;5028347;28;20025;-71
2021/12/09 05:20:07;;;;;;;4.43;2.53;;;;;;;;;;5032916;28;20496;-71
2021/12/09 05:22:33;;;;;;;3.40;2.55;;;;;;;;;;5026965;28;20112;-72
2021/12/09 05:24:59;;;;;;;6.15;1.88;;;;;;;;;;5040581;28;20040;-71
2021/12/09 05:27:25;;;;;;;1.83;1.73;;;;;;;;;;5043628;28;20533;-71
2021/12/09 05:30:03;;;;;;;2.53;1.52;;;;;;;;;;5039447;28;20037;-71
2021/12/09 05:32:30;;;;;;;1.77;1.67;;;;;;;;;;5039072;28;20021;-71
2021/12/09 05:34:55;;;;;;;3.85;2.42;;;;;;;;;;5034771;28;20021;-71
2021/12/09 05:37:23;;;;;;;15.13;2.10;;;;;;;;;;5032113;28;20518;-71
2021/12/09 05:39:50;;;;;;;7.93;2.47;;;;;;;;;;5024883;28;20029;-71
2021/12/09 05:42:17;;;;;;;3.75;3.42;;;;;;;;;;5044071;28;20039;-71
2021/12/09 05:44:43;;;;;;;2.15;2.03;;;;;;;;;;5056116;28;20064;-71
2021/12/09 05:47:09;;;;;;;1.23;1.15;;;;;;;;;;5026246;28;20083;-71
2021/12/09 05:49:36;;;;;;;2.35;2.08;;;;;;;;;;5023653;28;20049;-71
2021/12/09 05:52:03;;;;;;;2.03;1.45;;;;;;;;;;5031248;28;20035;-72
2021/12/09 05:54:29;;;;;;;8.18;3.28;;;;;;;;;;5019650;28;20025;-71
2021/12/09 05:56:55;;;;;;;2.97;2.70;;;;;;;;;;5022757;28;20116;-71
2021/12/09 05:59:21;;;;;;;4.47;2.38;;;;;;;;;;5030978;28;20025;-71
2021/12/09 06:01:47;;;;;;;1.85;1.33;;;;;;;;;;5034839;28;20808;-71
2021/12/09 06:04:13;;;;;;;3.22;2.20;;;;;;;;;;5026988;28;20112;-71
2021/12/09 06:06:39;;;;;;;4.18;2.95;;;;;;;;;;5027105;28;20025;-71
2021/12/09 06:09:06;;;;;;;2.50;2.40;;;;;;;;;;5035741;28;20475;-71
2021/12/09 06:11:34;;;;;;;3.10;2.85;;;;;;;;;;5034167;28;20387;-71
2021/12/09 06:14:00;;;;;;;2.95;1.88;;;;;;;;;;5027872;28;20033;-71
2021/12/09 06:16:25;;;;;;;4.07;3.72;;;;;;;;;;5042469;28;20442;-71
2021/12/09 06:18:52;;;;;;;5.38;3.60;;;;;;;;;;5038158;28;20017;-71
2021/12/09 06:21:19;;;;;;;1.92;1.35;;;;;;;;;;5033529;28;20464;-72
2021/12/09 06:23:46;;;;;;;5.97;4.35;;;;;;;;;;5023584;28;20060;-71
2021/12/09 06:26:12;;;;;;;3.50;3.22;;;;;;;;;;5025073;28;20443;-71
2021/12/09 06:28:38;;;;;;;7.60;3.65;;;;;;;;;;5034122;28;20036;-72
2021/12/09 06:31:05;;;;;;;2.58;2.38;;;;;;;;;;5034072;28;20632;-71
2021/12/09 06:33:31;;;;;;;2.40;2.20;;;;;;;;;;5037729;28;20021;-70
2021/12/09 06:35:57;;;;;;;2.55;2.40;;;;;;;;;;5036410;28;20111;-70
2021/12/09 06:38:23;;;;;;;27.63;2.75;;;;;;;;;;5023601;28;20025;-70
2021/12/09 06:40:49;;;;;;;5.57;2.08;;;;;;;;;;5029539;28;20033;-71
2021/12/09 06:43:16;;;;;;;4.45;2.33;;;;;;;;;;5028654;28;20026;-71
2021/12/09 06:45:42;;;;;;;12.48;3.13;;;;;;;;;;5033576;28;20048;-71
2021/12/09 06:48:08;;;;;;;3.72;2.75;;;;;;;;;;5032541;28;20025;-70
2021/12/09 06:50:35;;;;;;;2.47;2.20;;;;;;;;;;5022187;28;20407;-70
2021/12/09 06:53:01;;;;;;;1.58;1.48;;;;;;;;;;5023868;28;20067;-70
2021/12/09 06:55:27;;;;;;;2.05;1.92;;;;;;;;;;5021806;28;20037;-71
2021/12/09 06:57:53;;;;;;;1.65;1.58;;;;;;;;;;5038806;28;20033;-70
2021/12/09 07:00:24;;;;;;;3.03;2.20;;;;;;;;;;5032674;28;20594;-71
2021/12/09 07:02:50;;;;;;;2.92;2.72;;;;;;;;;;5025667;28;20042;-71
2021/12/09 07:05:17;;;;;;;3.55;2.33;;;;;;;;;;5026039;28;20052;-71
2021/12/09 07:07:43;;;;;;;3.47;3.15;;;;;;;;;;5027372;28;20145;-71
2021/12/09 07:10:10;;;;;;;0.50;0.50;;;;;;;;;;5033571;28;20052;-71
2021/12/09 07:12:37;;;;;;;3.17;2.00;;;;;;;;;;5033897;28;20044;-72
2021/12/09 07:15:05;;;;;;;3.00;2.75;;;;;;;;;;5043610;28;20613;-71
2021/12/09 07:17:30;;;;;;;1.90;1.80;;;;;;;;;;5033472;28;20032;-71
2021/12/09 07:19:56;;;;;;;1.15;1.13;;;;;;;;;;5025651;28;20021;-71
2021/12/09 07:22:22;;;;;;;4.05;2.35;;;;;;;;;;5028333;28;20770;-71
2021/12/09 07:24:48;;;;;;;2.72;1.50;;;;;;;;;;5026279;28;20179;-71
2021/12/09 07:27:14;;;;;;;12.20;3.05;;;;;;;;;;5033087;28;20025;-71
2021/12/09 07:29:40;;;;;;;4.30;2.33;;;;;;;;;;5042538;28;20442;-72
2021/12/09 07:32:06;;;;;;;4.03;2.95;;;;;;;;;;5028826;28;20068;-71
2021/12/09 07:34:32;;;;;;;0.40;0.40;;;;;;;;;;5028017;28;20021;-71
2021/12/09 07:37:03;;;;;;;2.63;2.15;;;;;;;;;;5027259;28;20037;-71
2021/12/09 07:39:29;;;;;;;2.13;2.00;;;;;;;;;;5028543;28;20017;-71
2021/12/09 07:41:56;;;;;;;2.60;2.40;;;;;;;;;;5030950;28;20033;-69
2021/12/09 07:44:22;;;;;;;4.45;3.65;;;;;;;;;;5040537;28;20041;-69
2021/12/09 07:46:48;;;;;;;2.08;1.90;;;;;;;;;;5027703;28;20033;-68
2021/12/09 07:49:14;;;;;;;5.63;2.65;;;;;;;;;;5027023;28;20456;-69
2021/12/09 07:51:40;;;;;;;3.53;3.17;;;;;;;;;;5031923;28;20120;-69
2021/12/09 07:54:06;;;;;;;1.02;1.02;;;;;;;;;;5033023;28;20116;-71
2021/12/09 07:56:32;;;;;;;1.85;1.75;;;;;;;;;;5029057;28;20146;-73
2021/12/09 07:58:58;;;;;;;1.50;1.35;;;;;;;;;;5035331;28;20029;-72
2021/12/09 08:01:24;;;;;;;3.10;2.83;;;;;;;;;;5032245;28;20033;-71
2021/12/09 08:03:50;;;;;;;3.88;2.17;;;;;;;;;;5026958;28;20120;-70
2021/12/09 08:06:16;;;;;;;2.67;2.22;;;;;;;;;;5028128;28;20053;-71
2021/12/09 08:08:42;;;;;;;6.13;3.83;;;;;;;;;;5035857;28;20029;-72
2021/12/09 08:11:08;;;;;;;6.47;3.05;;;;;;;;;;5033801;28;20041;-72
2021/12/09 08:13:34;;;;;;;3.05;1.95;;;;;;;;;;5031207;28;20116;-72
2021/12/09 08:16:01;;;;;;;4.53;3.47;;;;;;;;;;5028986;28;20383;-72
2021/12/09 08:18:27;;;;;;;2.35;2.13;;;;;;;;;;5035745;28;20025;-72
2021/12/09 08:21:03;;;;;;;1.70;1.60;;;;;;;;;;5039637;28;20402;-72
2021/12/09 08:23:29;;;;;;;1.15;1.15;;;;;;;;;;5036841;28;20048;-72
2021/12/09 08:25:57;;;;;;;3.42;1.00;;;;;;;;;;5030891;28;20075;-71
2021/12/09 08:28:23;;;;;;;3.60;3.30;;;;;;;;;;5024697;28;20561;-72
2021/12/09 08:30:50;;;;;;;3.05;1.02;;;;;;;;;;5026226;28;20028;-73
2021/12/09 08:33:17;;;;;;;19.08;4.43;;;;;;;;;;5024916;28;20032;-73
2021/12/09 08:35:43;;;;;;;3.80;2.95;;;;;;;;;;5027579;28;20036;-70
2021/12/09 08:38:09;;;;;;;3.05;2.72;;;;;;;;;;5028266;28;20112;-70
2021/12/09 08:40:36;;;;;;;3.08;2.78;;;;;;;;;;5036171;28;20390;-71
2021/12/09 08:43:01;;;;;;;1.17;1.17;;;;;;;;;;5038499;28;20049;-72
2021/12/09 08:45:29;;;;;;;3.03;1.77;;;;;;;;;;5033470;28;20059;-70
2021/12/09 08:47:54;;;;;;;1.67;1.58;;;;;;;;;;5029536;28;20447;-71
2021/12/09 08:50:22;;;;;;;3.13;1.73;;;;;;;;;;5036887;28;20035;-72
2021/12/09 08:52:50;;;;;;;1.75;1.65;;;;;;;;;;5026765;28;20507;-72
2021/12/09 08:55:17;;;;;;;2.92;1.80;;;;;;;;;;5041028;28;20021;-71
2021/12/09 08:57:43;;;;;;;2.28;1.33;;;;;;;;;;5043279;28;20033;-72
2021/12/09 09:00:11;;;;;;;7.65;3.83;;;;;;;;;;5033275;28;20094;-71
2021/12/09 09:02:38;;;;;;;2.08;1.90;;;;;;;;;;5026846;28;20057;-73
2021/12/09 09:05:08;;;;;;;3.10;2.85;;;;;;;;;;5024764;28;20442;-73
2021/12/09 09:07:33;;;;;;;3.58;3.28;;;;;;;;;;5022272;28;20638;-72
2021/12/09 09:10:00;;;;;;;0.50;0.50;;;;;;;;;;5035657;28;20103;-72
2021/12/09 09:12:28;;;;;;;1.52;1.42;;;;;;;;;;5030172;28;20031;-71
2021/12/09 09:14:54;;;;;;;5.47;3.42;;;;;;;;;;5029117;28;20494;-72
2021/12/09 09:17:20;;;;;;;5.00;3.60;;;;;;;;;;5036345;28;20060;-73
2021/12/09 09:19:46;;;;;;;2.50;2.30;;;;;;;;;;5024395;28;20052;-74
2021/12/09 09:22:13;;;;;;;1.25;1.25;;;;;;;;;;5039270;28;20033;-71
2021/12/09 09:24:39;;;;;;;1.13;1.10;;;;;;;;;;5043727;28;20101;-74
2021/12/09 09:27:05;;;;;;;8.20;4.28;;;;;;;;;;5026987;28;20120;-72
2021/12/09 09:29:33;;;;;;;1.13;0.75;;;;;;;;;;5037036;28;20595;-72
2021/12/09 09:31:59;;;;;;;4.13;2.60;;;;;;;;;;5036601;28;20033;-73
2021/12/09 09:34:25;;;;;;;4.63;1.42;;;;;;;;;;5025931;28;20021;-74
2021/12/09 09:36:51;;;;;;;7.82;5.03;;;;;;;;;;5026473;28;20055;-71
2021/12/09 09:39:17;;;;;;;4.95;3.50;;;;;;;;;;5037750;28;20029;-71
2021/12/09 09:41:47;;;;;;;1.17;1.17;;;;;;;;;;5050264;28;20037;-70
2021/12/09 09:44:16;;;;;;;1.85;1.75;;;;;;;;;;5047193;28;20764;-71
2021/12/09 09:46:42;;;;;;;3.80;3.47;;;;;;;;;;5025860;28;20119;-75
2021/12/09 09:49:09;;;;;;;1.13;1.13;;;;;;;;;;5022025;28;20128;-72
2021/12/09 09:51:35;;;;;;;2.95;2.28;;;;;;;;;;5021366;28;20063;-71
2021/12/09 09:54:03;;;;;;;3.40;2.80;;;;;;;;;;5023665;28;20025;-71
2021/12/09 09:56:30;;;;;;;6.18;3.92;;;;;;;;;;5023505;28;20475;-71
2021/12/09 09:59:01;;;;;;;4.78;4.40;;;;;;;;;;5022901;28;20025;-71
2021/12/09 10:01:28;;;;;;;0.90;0.90;;;;;;;;;;5027346;28;20036;-71
2021/12/09 10:04:09;;;;;;;3.80;2.05;;;;;;;;;;5026763;28;20049;-71
2021/12/09 10:06:35;;;;;;;5.60;3.43;;;;;;;;;;5040438;28;20033;-72
2021/12/09 10:09:01;;;;;;;3.00;2.58;;;;;;;;;;5037897;28;20024;-72
2021/12/09 10:11:27;;;;;;;12.80;3.25;;;;;;;;;;5025454;28;20365;-72
2021/12/09 10:13:53;;;;;;;3.28;2.63;;;;;;;;;;5038995;28;20495;-74
2021/12/09 10:16:21;;;;;;;1.45;1.35;;;;;;;;;;5026215;28;20041;-72
2021/12/09 10:18:48;;;;;;;0.85;0.85;;;;;;;;;;5020243;28;20041;-72
2021/12/09 10:21:20;;;;;;;2.40;2.03;;;;;;;;;;5028704;28;20083;-71
2021/12/09 10:23:50;;;;;;;6.28;3.10;;;;;;;;;;5023612;28;20060;-72
2021/12/09 10:26:19;;;;;;;1.73;1.63;;;;;;;;;;5042565;28;20059;-72
2021/12/09 10:28:50;;;;;;;1.00;1.00;;;;;;;;;;5024123;28;20056;-72
2021/12/09 10:31:18;;;;;;;0.80;0.80;;;;;;;;;;5044477;28;20033;-72
2021/12/09 10:34:20;;;;;;;1.48;1.38;;;;;;;;;;5033846;28;20029;-74
2021/12/09 10:37:00;;;;;;;10.50;3.38;;;;;;;;;;5028093;28;20488;-72
2021/12/09 10:39:38;;;;;;;1.15;1.15;;;;;;;;;;5024061;28;20025;-73
2021/12/09 10:42:15;;;;;;;4.63;2.63;;;;;;;;;;5028459;28;20425;-73
2021/12/09 10:44:43;;;;;;;5.72;2.22;;;;;;;;;;5021630;28;20029;-73
2021/12/09 10:47:19;;;;;;;2.22;1.73;;;;;;;;;;5035953;28;20032;-73
2021/12/09 10:49:51;;;;;;;1.17;1.17;;;;;;;;;;5033121;28;20037;-73
2021/12/09 10:52:36;;;;;;;0.90;0.90;;;;;;;;;;5032429;28;20045;-71
2021/12/09 10:55:06;;;;;;;6.80;4.03;;;;;;;;;;5024416;28;20068;-71
2021/12/09 10:57:32;;;;;;;1.65;1.55;;;;;;;;;;5024370;28;20459;-71
2021/12/09 11:00:13;;;;;;;7.82;2.47;;;;;;;;;;5034081;28;20060;-72
2021/12/09 11:02:55;;;;;;;0.80;0.80;;;;;;;;;;5033225;28;20037;-72
2021/12/09 11:05:21;;;;;;;3.35;2.70;;;;;;;;;;5030771;28;20047;-73
2021/12/09 11:07:47;;;;;;;2.20;1.90;;;;;;;;;;5033229;28;20029;-73
2021/12/09 11:10:21;;;;;;;4.15;3.45;;;;;;;;;;5038272;28;20020;-72
2021/12/09 11:12:48;;;;;;;1.02;1.02;;;;;;;;;;5007547;28;20021;-73
2021/12/09 11:15:16;;;;;;;3.78;2.20;;;;;;;;;;5023168;28;20045;-72
2021/12/09 11:17:45;;;;;;;6.15;2.72;;;;;;;;;;5031708;28;20060;-72
2021/12/09 11:20:11;;;;;;;1.83;1.40;;;;;;;;;;5023422;28;20105;-73
2021/12/09 11:22:38;;;;;;;4.45;3.20;;;;;;;;;;5024435;28;20108;-73
2021/12/09 11:25:06;;;;;;;4.70;3.30;;;;;;;;;;5024106;28;20041;-73
2021/12/09 11:27:32;;;;;;;2.45;2.13;;;;;;;;;;5025992;28;20025;-72
2021/12/09 11:30:13;;;;;;;2.92;2.72;;;;;;;;;;5039372;28;20021;-74
2021/12/09 11:32:49;;;;;;;3.42;3.22;;;;;;;;;;5039398;28;20093;-72
2021/12/09 11:35:20;;;;;;;2.03;1.83;;;;;;;;;;5027444;28;20025;-72
2021/12/09 11:41:02;;;;;;;5.70;2.92;;;;;;;;;;5021505;28;20037;-72
2021/12/09 11:43:29;;;;;;;1.15;1.02;;;;;;;;;;5024179;28;20079;-72
2021/12/09 11:45:59;;;;;;;1.48;1.38;;;;;;;;;;5027571;28;20438;-72
2021/12/09 11:48:27;;;;;;;2.23;2.03;;;;;;;;;;5030207;28;20029;-72
2021/12/09 11:50:53;;;;;;;3.95;2.95;;;;;;;;;;5029679;28;20022;-72
2021/12/09 11:53:22;;;;;;;2.38;2.17;;;;;;;;;;5040640;28;20039;-72
2021/12/09 11:56:00;;;;;;;4.28;3.90;;;;;;;;;;5031850;28;20029;-71
2021/12/09 11:58:30;;;;;;;2.03;1.42;;;;;;;;;;5043569;28;20036;-72
2021/12/09 12:06:50;;;;;;;1.58;1.48;;;;;;;;;;5043705;28;20581;-72
2021/12/09 12:12:26;;;;;;;2.58;2.38;;;;;;;;;;5032483;28;20086;-72
2021/12/09 12:14:57;;;;;;;1.30;1.17;;;;;;;;;;5025988;28;20042;-72
2021/12/09 12:17:30;;;;;;;8.25;3.88;;;;;;;;;;5045940;28;20498;-72
2021/12/09 12:20:28;;;;;;;2.92;1.48;;;;;;;;;;5025008;28;20083;-72
2021/12/09 12:26:04;;;;;;;6.97;2.08;;;;;;;;;;5027151;28;20087;-72
2021/12/09 12:28:45;;;;;;;1.55;1.33;;;;;;;;;;5031651;28;20470;-72
2021/12/09 12:31:31;;;;;;;1.83;1.73;;;;;;;;;;5033809;28;20028;-72
2021/12/09 12:34:23;;;;;;;8.23;3.38;;;;;;;;;;5040986;28;20021;-72
2021/12/09 12:39:57;;;;;;;3.03;2.65;;;;;;;;;;5029545;28;20816;-72
2021/12/09 12:42:31;;;;;;;4.65;1.23;;;;;;;;;;5040690;28;20033;-72
2021/12/09 12:45:14;;;;;;;0.80;0.80;;;;;;;;;;5040842;28;20033;-71
2021/12/09 12:47:48;;;;;;;1.90;1.80;;;;;;;;;;5023677;28;20037;-72
2021/12/09 12:50:16;;;;;;;2.25;2.15;;;;;;;;;;5022233;28;20028;-72
2021/12/09 12:52:44;;;;;;;2.25;2.00;;;;;;;;;;5034599;28;20087;-72
2021/12/09 12:55:15;;;;;;;3.13;2.88;;;;;;;;;;5022999;28;20420;-72
2021/12/09 12:57:47;;;;;;;1.48;1.35;;;;;;;;;;5023736;28;20020;-72
2021/12/09 13:00:15;;;;;;;2.08;1.92;;;;;;;;;;5033734;28;20108;-71
2021/12/09 13:05:36;;;;;;;3.38;3.08;;;;;;;;;;5026112;28;20026;-72
2021/12/09 13:11:05;;;;;;;1.85;1.40;;;;;;;;;;5036861;28;20041;-72
2021/12/09 13:14:19;;;;;;;6.22;2.95;;;;;;;;;;5039316;28;20135;-72
2021/12/09 13:19:18;;;;;;;3.65;3.17;;;;;;;;;;5036205;28;20545;-72
2021/12/09 13:21:46;;;;;;;1.77;1.67;;;;;;;;;;5025487;28;20211;-72
2021/12/09 13:24:30;;;;;;;2.35;2.17;;;;;;;;;;5025694;28;20053;-72
2021/12/09 13:27:05;;;;;;;3.60;3.30;;;;;;;;;;5023674;28;20049;-72
2021/12/09 13:29:39;;;;;;;7.45;2.83;;;;;;;;;;5030231;28;20071;-71
2021/12/09 13:32:23;;;;;;;1.67;1.27;;;;;;;;;;5020283;28;20553;-72
2021/12/09 13:35:04;;;;;;;4.28;2.58;;;;;;;;;;5020161;28;20110;-72
2021/12/09 13:40:39;;;;;;;6.78;1.52;;;;;;;;;;5031512;28;20037;-72
2021/12/09 13:46:09;;;;;;;6.93;1.30;;;;;;;;;;5019780;28;20097;-72
2021/12/09 13:48:49;;;;;;;1.35;1.30;;;;;;;;;;5022101;28;20029;-72
2021/12/09 13:51:40;;;;;;;2.90;2.70;;;;;;;;;;5019830;28;20026;-72
2021/12/09 13:54:18;;;;;;;2.55;2.28;;;;;;;;;;5019778;28;20028;-72
2021/12/09 13:56:45;;;;;;;1.38;1.27;;;;;;;;;;5021511;28;20159;-72
2021/12/09 13:59:21;;;;;;;4.35;1.83;;;;;;;;;;5020157;28;20070;-72
2021/12/09 14:01:47;;;;;;;2.10;2.00;;;;;;;;;;5019860;28;20026;-71
2021/12/09 14:04:17;;;;;;;3.20;2.88;;;;;;;;;;5019878;28;20033;-72
2021/12/09 14:07:12;;;;;;;3.90;3.60;;;;;;;;;;5021305;28;20025;-72
2021/12/09 14:09:39;;;;;;;1.92;1.60;;;;;;;;;;5027951;28;20514;-71
2021/12/09 14:12:06;;;;;;;2.58;2.03;;;;;;;;;;5035350;28;20036;-71
2021/12/09 14:14:47;;;;;;;7.68;4.43;;;;;;;;;;5033751;28;20032;-72
2021/12/09 14:17:17;;;;;;;2.50;1.85;;;;;;;;;;5042398;28;20021;-72
2021/12/09 14:20:00;;;;;;;2.25;1.90;;;;;;;;;;5025474;28;20034;-72
2021/12/09 14:22:31;;;;;;;3.25;2.97;;;;;;;;;;5028330;28;20450;-73
2021/12/09 14:25:00;;;;;;;9.95;3.17;;;;;;;;;;5026531;28;21110;-72
2021/12/09 14:27:26;;;;;;;7.10;4.03;;;;;;;;;;5034552;28;20040;-73
2021/12/09 14:29:54;;;;;;;4.75;2.53;;;;;;;;;;5031081;28;20033;-73
2021/12/09 14:32:21;;;;;;;2.10;2.00;;;;;;;;;;5046207;28;20175;-73
2021/12/09 14:34:52;;;;;;;2.42;1.35;;;;;;;;;;5031943;28;20063;-73
2021/12/09 14:37:22;;;;;;;2.20;1.63;;;;;;;;;;5040785;28;20025;-73
2021/12/09 14:39:48;;;;;;;2.50;1.83;;;;;;;;;;5039439;28;20041;-73
2021/12/09 14:42:19;;;;;;;3.88;3.55;;;;;;;;;;5023922;28;20029;-73
2021/12/09 14:44:58;;;;;;;12.17;4.70;;;;;;;;;;5025345;28;20104;-72
2021/12/09 14:47:24;;;;;;;5.18;3.15;;;;;;;;;;5039851;28;20032;-72
2021/12/09 14:49:54;;;;;;;11.93;3.60;;;;;;;;;;5029036;28;20723;-72
2021/12/09 14:52:36;;;;;;;1.92;1.75;;;;;;;;;;5028556;28;20025;-73
2021/12/09 14:55:13;;;;;;;0.70;0.70;;;;;;;;;;5034237;28;20040;-73
2021/12/09 14:58:09;;;;;;;5.32;3.53;;;;;;;;;;5027746;28;20026;-72
2021/12/09 15:00:38;;;;;;;9.80;3.53;;;;;;;;;;5051095;28;20029;-73
2021/12/09 15:03:05;;;;;;;3.83;2.97;;;;;;;;;;5039318;28;20426;-73
2021/12/09 15:05:33;;;;;;;4.90;2.13;;;;;;;;;;5027065;28;20030;-73
2021/12/09 15:08:04;;;;;;;1.60;1.50;;;;;;;;;;5027291;28;20109;-71
2021/12/09 15:10:32;;;;;;;1.58;1.45;;;;;;;;;;5028135;28;20096;-71
2021/12/09 15:12:59;;;;;;;12.13;1.83;;;;;;;;;;5033563;28;20597;-72
2021/12/09 15:15:27;;;;;;;3.55;2.42;;;;;;;;;;5025584;28;20475;-73
2021/12/09 15:17:57;;;;;;;2.30;2.17;;;;;;;;;;5031656;28;20056;-72
2021/12/09 15:20:29;;;;;;;8.00;3.22;;;;;;;;;;5034919;28;20052;-72
2021/12/09 15:23:00;;;;;;;1.40;1.25;;;;;;;;;;5037406;28;20091;-72
2021/12/09 15:25:33;;;;;;;7.37;3.60;;;;;;;;;;5032184;28;20431;-72
2021/12/09 15:28:06;;;;;;;1.70;1.60;;;;;;;;;;5026221;28;20095;-72